Terminal Aerodrome Forecast
Issued by NWS

Home | Current Version | Previous Version | Text Only | Print | Product List | Glossary On
Versions: 1 2 3 4 5 6 7 8 9 10 11 12 13 14 15 16 17 18 19 20 21 22 23 24 25 26
000
FTPA31 PHFO 210548
TAFSTU
TAF
NSTU 210548Z 2106/2206 12009KT P6SM SCT020 SCT040 BKN120
     FM220000 12012KT P6SM VCSH SCT020 BKN040 BKN120=

USA.gov is the U.S. government's official web portal to all federal, state and local government web resources and services.